createdAt,value
2017-07-16T00:02:13.836Z,96.40
2017-07-16T00:04:41.022Z,96.50
2017-07-16T00:07:07.506Z,96.50
2017-07-16T00:09:34.995Z,96.60
2017-07-16T00:12:01.515Z,96.50
2017-07-16T00:14:28.073Z,96.50
2017-07-16T00:16:54.515Z,96.60
2017-07-16T00:19:21.735Z,96.60
2017-07-16T00:21:48.237Z,96.60
2017-07-16T00:24:15.432Z,96.80
2017-07-16T00:26:41.892Z,96.50
2017-07-16T00:29:08.311Z,96.70
2017-07-16T00:31:34.760Z,96.80
2017-07-16T00:34:01.224Z,96.80
2017-07-16T00:36:27.662Z,96.70
2017-07-16T00:38:54.591Z,96.70
2017-07-16T00:41:21.034Z,96.80
2017-07-16T00:43:47.525Z,96.70
2017-07-16T00:46:14.000Z,96.80
2017-07-16T00:48:40.445Z,96.60
2017-07-16T00:51:06.897Z,96.60
2017-07-16T00:53:33.329Z,96.60
2017-07-16T00:55:59.770Z,96.70
2017-07-16T00:58:26.202Z,96.60
2017-07-16T01:00:53.396Z,96.70
2017-07-16T01:03:19.877Z,96.60
2017-07-16T01:05:46.411Z,96.70
2017-07-16T01:08:12.867Z,96.60
2017-07-16T01:10:39.321Z,96.50
2017-07-16T01:13:05.763Z,96.40
2017-07-16T01:15:33.055Z,96.40
2017-07-16T01:17:59.612Z,96.40
2017-07-16T01:20:26.070Z,96.40
2017-07-16T01:22:52.518Z,96.50
2017-07-16T01:25:19.724Z,96.40
2017-07-16T01:27:46.203Z,96.40
2017-07-16T01:30:12.678Z,96.30
2017-07-16T01:32:39.107Z,96.30
2017-07-16T01:35:05.577Z,96.80
2017-07-16T01:37:32.059Z,96.60
2017-07-16T01:40:00.201Z,96.70
2017-07-16T01:42:26.688Z,96.60
2017-07-16T01:44:53.187Z,96.70
2017-07-16T01:47:19.673Z,96.70
2017-07-16T01:49:46.137Z,96.70
2017-07-16T01:52:12.657Z,96.80
2017-07-16T01:54:39.216Z,96.80
2017-07-16T01:57:05.671Z,96.80
2017-07-16T01:59:32.230Z,96.80
2017-07-16T02:01:59.654Z,96.80
2017-07-16T02:04:26.096Z,96.90
2017-07-16T02:06:52.622Z,97.00
2017-07-16T02:09:19.180Z,96.90
2017-07-16T02:11:45.737Z,96.90
2017-07-16T02:14:12.193Z,96.80
2017-07-16T02:16:38.669Z,96.80
2017-07-16T02:19:05.099Z,96.70
2017-07-16T02:21:31.553Z,96.70
2017-07-16T02:23:58.743Z,97.30
2017-07-16T02:26:25.197Z,97.30
2017-07-16T02:31:24.815Z,97.20
2017-07-16T02:33:51.248Z,97.20
2017-07-16T02:36:18.141Z,97.20
2017-07-16T02:38:44.632Z,97.20
2017-07-16T02:41:11.060Z,97.30
2017-07-16T02:43:37.501Z,97.40
2017-07-16T02:46:04.419Z,97.30
2017-07-16T02:48:30.892Z,97.20
2017-07-16T02:50:57.426Z,97.20
2017-07-16T02:53:23.876Z,97.30
2017-07-16T02:55:50.317Z,97.20
2017-07-16T02:58:17.484Z,97.30
2017-07-16T03:00:44.707Z,97.30
2017-07-16T03:03:11.163Z,97.30
2017-07-16T03:05:37.691Z,97.20
2017-07-16T03:08:04.249Z,97.20
2017-07-16T03:10:30.729Z,97.20
2017-07-16T03:12:57.197Z,97.30
2017-07-16T03:15:23.671Z,97.20
2017-07-16T03:17:50.119Z,97.20
2017-07-16T03:20:17.047Z,97.20
2017-07-16T03:22:43.827Z,97.20
2017-07-16T03:25:36.340Z,97.20
2017-07-16T03:28:03.205Z,97.20
2017-07-16T03:30:29.643Z,97.20
2017-07-16T03:32:56.813Z,97.60
2017-07-16T03:35:24.009Z,97.60
2017-07-16T03:37:50.417Z,97.10
2017-07-16T03:40:17.657Z,97.20
2017-07-16T03:42:44.098Z,97.20
2017-07-16T03:45:10.648Z,97.10
2017-07-16T03:47:37.096Z,97.10
2017-07-16T03:50:04.286Z,97.10
2017-07-16T03:52:30.715Z,97.00
2017-07-16T03:54:57.919Z,97.00
2017-07-16T03:57:24.374Z,97.00
2017-07-16T03:59:50.921Z,96.80
2017-07-16T04:02:17.382Z,96.70
2017-07-16T04:04:43.918Z,96.70
2017-07-16T04:07:11.736Z,96.50
2017-07-16T04:09:38.177Z,96.20
2017-07-16T04:12:04.659Z,96.20
2017-07-16T04:14:31.609Z,96.40
2017-07-16T04:16:58.066Z,97.50
2017-07-16T04:19:24.521Z,97.30
2017-07-16T04:21:50.973Z,95.60
2017-07-16T04:24:17.418Z,93.70
2017-07-16T04:26:44.978Z,89.30
2017-07-16T04:29:12.167Z,84.40
2017-07-16T04:31:39.351Z,80.50
2017-07-16T04:34:06.129Z,80.50
2017-07-16T04:36:32.589Z,76.90
2017-07-16T04:38:59.126Z,73.30
2017-07-16T04:41:25.684Z,69.80
2017-07-16T04:43:52.246Z,66.90
2017-07-16T04:46:18.710Z,64.20
2017-07-16T04:48:45.139Z,61.20
2017-07-16T04:51:11.603Z,59.10
2017-07-16T04:53:38.782Z,56.10
2017-07-16T04:56:05.345Z,56.10
2017-07-16T04:58:31.808Z,54.50
2017-07-16T05:00:58.268Z,52.70
2017-07-16T05:03:25.149Z,51.10
2017-07-16T05:05:51.581Z,49.70
2017-07-16T05:08:18.052Z,48.60
2017-07-16T05:10:44.946Z,47.60
2017-07-16T05:13:11.659Z,46.50
2017-07-16T05:15:38.102Z,45.50
2017-07-16T05:18:04.559Z,44.20
2017-07-16T05:20:31.847Z,43.70
2017-07-16T05:22:58.902Z,43.70
2017-07-16T05:25:26.103Z,43.20
2017-07-16T05:27:52.529Z,43.20
2017-07-16T05:30:20.411Z,42.70
2017-07-16T05:32:48.016Z,42.00
2017-07-16T05:35:14.572Z,42.00
2017-07-16T05:37:41.059Z,41.00
2017-07-16T05:40:07.498Z,40.70
2017-07-16T05:42:33.959Z,40.10
2017-07-16T05:45:00.413Z,40.00
2017-07-16T05:47:26.955Z,39.70
2017-07-16T05:49:54.762Z,38.40
2017-07-16T05:52:21.781Z,38.40
2017-07-16T05:54:48.967Z,38.40
2017-07-16T05:57:15.542Z,37.60
2017-07-16T05:59:56.911Z,37.50
2017-07-16T06:02:24.203Z,36.40
2017-07-16T06:04:50.640Z,36.50
2017-07-16T06:07:18.243Z,35.50
2017-07-16T06:09:44.704Z,35.20
2017-07-16T06:12:11.237Z,34.10
2017-07-16T06:14:38.542Z,32.70
2017-07-16T06:17:05.087Z,32.70
2017-07-16T06:19:31.646Z,32.20
2017-07-16T06:21:58.408Z,31.10
2017-07-16T06:24:24.970Z,30.50
2017-07-16T06:26:51.394Z,30.10
2017-07-16T06:29:18.430Z,29.80
2017-07-16T06:31:45.495Z,29.50
2017-07-16T06:34:12.023Z,29.00
2017-07-16T06:36:39.090Z,28.80
2017-07-16T06:39:05.544Z,28.70
2017-07-16T06:41:31.964Z,28.30
2017-07-16T06:43:59.166Z,28.40
2017-07-16T06:46:25.635Z,27.80
2017-07-16T06:48:52.090Z,27.80
2017-07-16T06:51:18.497Z,28.00
2017-07-16T06:53:44.933Z,27.30
2017-07-16T06:56:11.365Z,26.70
2017-07-16T06:58:37.801Z,26.50
2017-07-16T07:01:04.971Z,25.40
2017-07-16T07:03:32.150Z,25.40
2017-07-16T07:05:58.549Z,25.30
2017-07-16T07:08:24.979Z,25.00
2017-07-16T07:10:51.605Z,24.80
2017-07-16T07:13:18.793Z,24.40
2017-07-16T07:15:45.289Z,24.30
2017-07-16T07:18:12.733Z,24.10
2017-07-16T07:20:39.803Z,24.10
2017-07-16T07:23:06.463Z,24.20
2017-07-16T07:25:33.023Z,24.30
2017-07-16T07:27:59.502Z,24.70
2017-07-16T07:30:25.978Z,25.70
2017-07-16T07:32:52.445Z,25.90
2017-07-16T07:35:18.966Z,25.20
2017-07-16T07:37:45.409Z,24.50
2017-07-16T07:40:11.960Z,24.40
2017-07-16T07:42:38.518Z,23.50
2017-07-16T07:45:05.591Z,23.20
2017-07-16T07:47:32.148Z,23.20
2017-07-16T07:49:58.685Z,24.30
2017-07-16T07:52:25.170Z,25.20
2017-07-16T07:54:51.693Z,25.90
2017-07-16T07:57:18.790Z,26.00
2017-07-16T07:59:45.654Z,26.30
2017-07-16T08:02:12.417Z,26.90
2017-07-16T08:04:40.100Z,27.10
2017-07-16T08:07:08.500Z,27.20
2017-07-16T08:09:35.570Z,27.50
2017-07-16T08:12:02.741Z,27.80
2017-07-16T08:14:30.945Z,27.90
2017-07-16T08:17:00.125Z,27.70
2017-07-16T08:19:28.016Z,28.50
2017-07-16T08:21:56.033Z,28.60
2017-07-16T08:24:24.225Z,28.60
2017-07-16T08:26:51.296Z,28.50
2017-07-16T08:29:18.574Z,29.30
2017-07-16T08:31:45.332Z,30.00
2017-07-16T08:34:12.606Z,30.10
2017-07-16T08:36:39.268Z,31.20
2017-07-16T08:39:07.345Z,30.70
2017-07-16T08:41:36.504Z,31.30
2017-07-16T08:44:04.568Z,31.30
2017-07-16T08:46:33.272Z,30.90
2017-07-16T08:49:00.650Z,32.10
2017-07-16T08:51:27.181Z,31.10
2017-07-16T08:53:54.482Z,32.20
2017-07-16T08:56:21.538Z,32.20
2017-07-16T08:58:49.479Z,33.70
2017-07-16T09:01:15.933Z,33.60
2017-07-16T09:03:43.888Z,34.20
2017-07-16T09:06:10.446Z,35.10
2017-07-16T09:08:37.001Z,35.00
2017-07-16T09:11:03.665Z,35.30
2017-07-16T09:13:30.187Z,35.30
2017-07-16T09:15:57.700Z,35.90
2017-07-16T09:18:24.361Z,36.50
2017-07-16T09:20:50.928Z,36.40
2017-07-16T09:23:17.682Z,37.20
2017-07-16T09:25:45.776Z,37.90
2017-07-16T09:28:13.151Z,38.00
2017-07-16T09:30:40.119Z,38.80
2017-07-16T09:33:06.608Z,39.70
2017-07-16T09:35:33.638Z,40.10
2017-07-16T09:38:00.918Z,40.20
2017-07-16T09:40:27.416Z,40.10
2017-07-16T09:42:53.883Z,40.70
2017-07-16T09:45:20.390Z,40.80
2017-07-16T09:47:46.947Z,39.60
2017-07-16T09:50:13.506Z,40.20
2017-07-16T09:52:40.045Z,40.80
2017-07-16T09:55:22.270Z,41.40
2017-07-16T09:57:48.730Z,41.30
2017-07-16T10:00:15.209Z,40.30
2017-07-16T10:02:41.679Z,41.10
2017-07-16T10:05:08.600Z,40.60
2017-07-16T10:07:35.810Z,40.40
2017-07-16T10:10:02.318Z,40.40
2017-07-16T10:12:29.575Z,41.80
2017-07-16T10:14:56.095Z,41.80
2017-07-16T10:17:22.625Z,41.80
2017-07-16T10:19:49.184Z,41.00
2017-07-16T10:22:15.658Z,42.00
2017-07-16T10:24:42.301Z,42.30
2017-07-16T10:27:08.741Z,41.30
2017-07-16T10:29:36.030Z,41.20
2017-07-16T10:32:02.694Z,41.20
2017-07-16T10:34:29.250Z,41.80
2017-07-16T10:36:55.810Z,41.80
2017-07-16T10:39:22.572Z,41.80
2017-07-16T10:41:49.057Z,43.10
2017-07-16T10:44:16.077Z,42.40
2017-07-16T10:46:43.303Z,43.20
2017-07-16T10:49:09.823Z,43.10
2017-07-16T10:51:36.387Z,41.20
2017-07-16T10:54:02.954Z,41.40
2017-07-16T10:56:29.606Z,40.80
2017-07-16T10:58:56.042Z,40.50
2017-07-16T11:01:22.518Z,40.40
2017-07-16T11:03:49.582Z,40.10
2017-07-16T11:06:16.066Z,39.30
2017-07-16T11:08:42.492Z,38.60
2017-07-16T11:11:09.693Z,40.00
2017-07-16T11:13:36.232Z,40.00
2017-07-16T11:16:02.766Z,39.90
2017-07-16T11:18:29.959Z,38.30
2017-07-16T11:20:57.341Z,38.10
2017-07-16T11:23:24.918Z,38.10
2017-07-16T11:25:51.411Z,37.60
2017-07-16T11:28:17.933Z,38.40
2017-07-16T11:30:44.491Z,37.70
2017-07-16T11:33:10.944Z,38.10
2017-07-16T11:35:37.449Z,37.90
2017-07-16T11:38:04.439Z,37.30
2017-07-16T11:40:30.909Z,37.70
2017-07-16T11:42:57.550Z,37.10
2017-07-16T11:45:24.456Z,36.10
2017-07-16T11:47:51.014Z,35.70
2017-07-16T11:50:17.498Z,35.30
2017-07-16T11:52:44.028Z,35.30
2017-07-16T11:55:10.538Z,35.60
2017-07-16T11:57:36.991Z,35.60
2017-07-16T12:00:03.461Z,35.90
2017-07-16T12:02:30.058Z,36.20
2017-07-16T12:04:56.556Z,36.70
2017-07-16T12:07:23.071Z,36.50
2017-07-16T12:09:49.531Z,35.80
2017-07-16T12:12:15.987Z,36.10
2017-07-16T12:14:42.857Z,35.90
2017-07-16T12:17:09.317Z,36.60
2017-07-16T12:19:35.785Z,36.50
2017-07-16T12:22:02.641Z,36.50
2017-07-16T12:24:29.098Z,37.30
2017-07-16T12:26:55.845Z,37.00
2017-07-16T12:29:22.316Z,35.30
2017-07-16T12:31:48.866Z,35.30
2017-07-16T12:34:15.361Z,37.50
2017-07-16T12:36:41.804Z,37.70
2017-07-16T12:39:08.347Z,36.50
2017-07-16T12:41:34.891Z,35.90
2017-07-16T12:44:01.340Z,36.40
2017-07-16T12:46:28.582Z,36.80
2017-07-16T12:48:55.062Z,36.70
2017-07-16T12:51:22.658Z,35.60
2017-07-16T12:53:49.081Z,35.60
2017-07-16T12:56:16.334Z,36.10
2017-07-16T12:58:42.844Z,36.10
2017-07-16T13:01:09.330Z,35.60
2017-07-16T13:03:35.858Z,35.90
2017-07-16T13:06:02.524Z,35.50
2017-07-16T13:08:29.079Z,35.30
2017-07-16T13:10:55.640Z,36.30
2017-07-16T13:13:22.195Z,37.00
2017-07-16T13:15:48.643Z,36.90
2017-07-16T13:18:15.880Z,36.70
2017-07-16T13:20:42.381Z,36.60
2017-07-16T13:23:09.045Z,36.50
2017-07-16T13:25:35.528Z,36.30
2017-07-16T13:28:01.992Z,35.00
2017-07-16T13:30:28.420Z,35.00
2017-07-16T13:32:54.861Z,35.70
2017-07-16T13:35:21.255Z,35.50
2017-07-16T13:37:47.694Z,35.10
2017-07-16T13:40:14.238Z,35.50
2017-07-16T13:42:40.765Z,36.30
2017-07-16T13:45:08.996Z,36.40
2017-07-16T13:47:35.502Z,36.70
2017-07-16T13:50:02.087Z,35.80
2017-07-16T13:52:29.303Z,34.30
2017-07-16T13:54:55.755Z,34.20
2017-07-16T13:57:22.537Z,34.80
2017-07-16T13:59:49.220Z,34.90
2017-07-16T14:02:15.818Z,35.20
2017-07-16T14:04:42.275Z,36.10
2017-07-16T14:07:08.832Z,36.40
2017-07-16T14:09:35.390Z,36.00
2017-07-16T14:12:01.949Z,36.20
2017-07-16T14:14:29.157Z,36.30
2017-07-16T14:16:55.679Z,37.00
2017-07-16T14:19:22.289Z,36.80
2017-07-16T14:21:48.798Z,37.20
2017-07-16T14:24:15.355Z,36.70
2017-07-16T14:26:41.841Z,37.10
2017-07-16T14:29:08.368Z,36.40
2017-07-16T14:31:34.783Z,36.20
2017-07-16T14:34:01.346Z,36.30
2017-07-16T14:36:27.795Z,35.90
2017-07-16T14:38:55.115Z,36.10
2017-07-16T14:41:21.600Z,36.80
2017-07-16T14:43:48.130Z,37.00
2017-07-16T14:46:15.303Z,37.70
2017-07-16T14:48:41.836Z,38.10
2017-07-16T14:51:09.028Z,37.30
2017-07-16T14:53:35.592Z,37.80
2017-07-16T14:56:02.360Z,38.10
2017-07-16T14:58:30.005Z,37.90
2017-07-16T15:00:56.509Z,38.40
2017-07-16T15:03:23.049Z,38.70
2017-07-16T15:05:49.553Z,39.00
2017-07-16T15:08:16.063Z,39.00
2017-07-16T15:10:42.602Z,39.30
2017-07-16T15:13:09.850Z,40.40
2017-07-16T15:15:36.277Z,40.00
2017-07-16T15:18:02.915Z,39.60
2017-07-16T15:20:29.399Z,39.60
2017-07-16T15:22:56.038Z,39.80
2017-07-16T15:25:22.811Z,39.40
2017-07-16T15:27:49.307Z,39.10
2017-07-16T15:30:15.786Z,39.40
2017-07-16T15:32:44.040Z,40.00
2017-07-16T15:35:10.496Z,40.00
2017-07-16T15:37:37.016Z,40.00
2017-07-16T15:40:03.574Z,40.10
2017-07-16T15:42:30.131Z,40.40
2017-07-16T15:44:56.694Z,40.30
2017-07-16T15:47:23.227Z,40.60
2017-07-16T15:49:50.523Z,40.60
2017-07-16T15:52:17.027Z,40.60
2017-07-16T15:54:43.625Z,41.00
2017-07-16T15:57:10.407Z,40.40
2017-07-16T15:59:36.960Z,40.50
2017-07-16T16:02:04.868Z,40.60
2017-07-16T16:04:31.519Z,40.60
2017-07-16T16:06:58.099Z,40.80
2017-07-16T16:09:24.630Z,40.60
2017-07-16T16:11:52.003Z,41.00
2017-07-16T16:14:18.767Z,41.20
2017-07-16T16:16:45.311Z,41.70
2017-07-16T16:19:12.603Z,42.60
2017-07-16T16:21:39.181Z,42.60
2017-07-16T16:24:05.803Z,42.80
2017-07-16T16:26:32.283Z,43.10
2017-07-16T16:28:58.851Z,43.30
2017-07-16T16:31:25.580Z,43.40
2017-07-16T16:33:53.131Z,43.30
2017-07-16T16:36:19.638Z,43.30
2017-07-16T16:38:46.196Z,43.50
2017-07-16T16:41:12.697Z,43.80
2017-07-16T16:43:39.153Z,43.80
2017-07-16T16:46:05.649Z,43.90
2017-07-16T16:48:33.756Z,43.90
2017-07-16T16:51:00.311Z,43.90
2017-07-16T16:53:26.869Z,44.30
2017-07-16T16:56:08.361Z,44.50
2017-07-16T16:58:34.837Z,44.50
2017-07-16T17:01:01.358Z,44.30
2017-07-16T17:03:28.600Z,43.90
2017-07-16T17:05:55.106Z,43.90
2017-07-16T17:08:21.666Z,44.80
2017-07-16T17:10:48.223Z,45.00
2017-07-16T17:13:14.659Z,45.50
2017-07-16T17:15:41.240Z,45.50
2017-07-16T17:18:07.699Z,46.00
2017-07-16T17:20:35.119Z,46.80
2017-07-16T17:23:01.690Z,47.10
2017-07-16T17:25:28.128Z,47.30
2017-07-16T17:27:55.570Z,47.40
2017-07-16T17:30:22.034Z,47.40
2017-07-16T17:32:48.981Z,47.00
2017-07-16T17:35:16.214Z,47.00
2017-07-16T17:37:42.821Z,47.00
2017-07-16T17:40:09.382Z,47.20
2017-07-16T17:42:35.879Z,47.60
2017-07-16T17:45:02.392Z,47.60
2017-07-16T17:47:29.749Z,47.80
2017-07-16T17:49:56.984Z,48.40
2017-07-16T17:52:24.010Z,48.30
2017-07-16T17:54:50.528Z,48.90
2017-07-16T17:57:17.024Z,48.80
2017-07-16T17:59:43.488Z,49.50
2017-07-16T18:02:10.044Z,48.80
2017-07-16T18:04:36.548Z,48.90
2017-07-16T18:07:03.156Z,48.90
2017-07-16T18:09:29.784Z,49.00
2017-07-16T18:11:56.377Z,48.90
2017-07-16T18:14:22.946Z,49.30
2017-07-16T18:16:49.493Z,49.10
2017-07-16T18:19:16.052Z,49.80
2017-07-16T18:21:42.514Z,50.40
2017-07-16T18:24:09.067Z,50.80
2017-07-16T18:26:35.619Z,51.30
2017-07-16T18:29:03.883Z,51.50
2017-07-16T18:31:30.901Z,51.50
2017-07-16T18:33:57.447Z,51.80
2017-07-16T18:36:23.908Z,51.80
2017-07-16T18:38:50.565Z,52.50
2017-07-16T18:41:17.125Z,51.90
2017-07-16T18:43:43.555Z,52.10
2017-07-16T18:46:10.748Z,52.80
2017-07-16T18:48:37.249Z,52.70
2017-07-16T18:51:03.749Z,52.50
2017-07-16T18:53:30.273Z,53.00
2017-07-16T18:55:56.759Z,53.10
2017-07-16T18:58:24.673Z,54.00
2017-07-16T19:00:52.118Z,54.00
2017-07-16T19:03:19.515Z,54.30
2017-07-16T19:05:46.702Z,54.60
2017-07-16T19:08:13.162Z,54.50
2017-07-16T19:10:40.017Z,54.80
2017-07-16T19:13:06.514Z,55.20
2017-07-16T19:15:33.136Z,55.20
2017-07-16T19:17:59.593Z,55.80
2017-07-16T19:20:26.098Z,56.40
2017-07-16T19:22:53.279Z,55.40
2017-07-16T19:25:19.778Z,55.60
2017-07-16T19:27:46.334Z,55.70
2017-07-16T19:30:12.776Z,56.10
2017-07-16T19:32:40.064Z,55.70
2017-07-16T19:35:06.623Z,55.70
2017-07-16T19:37:33.282Z,55.90
2017-07-16T19:39:59.845Z,55.90
2017-07-16T19:42:26.347Z,56.20
2017-07-16T19:44:52.917Z,56.20
2017-07-16T19:47:19.381Z,56.20
2017-07-16T19:49:46.486Z,56.30
2017-07-16T19:52:13.041Z,56.60
2017-07-16T19:54:39.806Z,56.90
2017-07-16T19:57:06.367Z,57.40
2017-07-16T19:59:32.922Z,57.90
2017-07-16T20:02:00.099Z,58.20
2017-07-16T20:04:26.535Z,58.60
2017-07-16T20:06:53.767Z,59.70
2017-07-16T20:09:20.252Z,59.70
2017-07-16T20:11:46.717Z,60.70
2017-07-16T20:14:14.017Z,61.50
2017-07-16T20:16:40.571Z,61.30
2017-07-16T20:19:07.751Z,61.40
2017-07-16T20:21:34.215Z,62.30
2017-07-16T20:24:00.711Z,63.00
2017-07-16T20:26:27.202Z,63.70
2017-07-16T20:28:53.772Z,63.90
2017-07-16T20:31:20.738Z,64.90
2017-07-16T20:33:47.508Z,65.50
2017-07-16T20:36:14.161Z,65.80
2017-07-16T20:38:40.577Z,66.20
2017-07-16T20:41:07.266Z,66.50
2017-07-16T20:43:33.841Z,67.00
2017-07-16T20:46:00.397Z,67.30
2017-07-16T20:48:27.364Z,67.30
2017-07-16T20:50:53.920Z,68.00
2017-07-16T20:53:20.991Z,67.70
2017-07-16T20:55:47.469Z,68.60
2017-07-16T20:58:14.517Z,66.90
2017-07-16T21:00:41.293Z,66.20
2017-07-16T21:03:07.837Z,66.30
2017-07-16T21:05:34.400Z,66.60
2017-07-16T21:08:00.956Z,66.70
2017-07-16T21:10:28.052Z,67.10
2017-07-16T21:12:54.496Z,67.20
2017-07-16T21:18:51.317Z,68.00
2017-07-16T21:21:17.873Z,68.60
2017-07-16T21:23:44.348Z,68.90
2017-07-16T21:26:11.113Z,69.00
2017-07-16T21:28:37.637Z,69.20
2017-07-16T21:31:04.870Z,70.00
2017-07-16T21:33:31.363Z,70.00
2017-07-16T21:35:58.625Z,70.90
2017-07-16T21:38:25.855Z,71.30
2017-07-16T21:40:52.315Z,71.30
2017-07-16T21:43:18.809Z,71.70
2017-07-16T21:45:46.019Z,72.30
2017-07-16T21:48:12.572Z,72.20
2017-07-16T21:50:39.040Z,72.20
2017-07-16T21:53:06.489Z,72.10
2017-07-16T21:55:33.941Z,72.40
2017-07-16T21:58:00.645Z,72.40
2017-07-16T22:00:27.119Z,72.40
2017-07-16T22:02:54.805Z,72.50
2017-07-16T22:05:21.899Z,72.70
2017-07-16T22:07:48.391Z,72.10
2017-07-16T22:10:15.023Z,72.40
2017-07-16T22:12:41.511Z,72.30
2017-07-16T22:15:08.806Z,73.60
2017-07-16T22:17:35.444Z,73.60
2017-07-16T22:20:02.673Z,73.80
2017-07-16T22:22:29.131Z,73.60
2017-07-16T22:24:55.561Z,73.90
2017-07-16T22:27:22.021Z,73.70
2017-07-16T22:29:48.486Z,73.80
2017-07-16T22:32:15.016Z,73.80
2017-07-16T22:34:41.478Z,73.40
2017-07-16T22:37:07.928Z,73.20
2017-07-16T22:39:35.123Z,74.00
2017-07-16T22:42:01.667Z,74.00
2017-07-16T22:44:28.100Z,74.50
2017-07-16T22:46:55.399Z,73.70
2017-07-16T22:49:21.836Z,73.70
2017-07-16T22:51:49.126Z,74.50
2017-07-16T22:54:15.615Z,73.50
2017-07-16T22:56:42.105Z,73.20
2017-07-16T22:59:08.597Z,73.80
2017-07-16T23:01:35.042Z,74.10
2017-07-16T23:04:02.260Z,74.80
2017-07-16T23:06:29.704Z,74.80
2017-07-16T23:08:56.797Z,75.10
2017-07-16T23:11:23.266Z,75.00
2017-07-16T23:13:49.756Z,75.00
2017-07-16T23:16:16.227Z,75.40
2017-07-16T23:18:43.523Z,76.30
2017-07-16T23:21:10.451Z,75.70
2017-07-16T23:23:36.906Z,75.90
2017-07-16T23:26:03.394Z,76.30
2017-07-16T23:28:29.837Z,76.40
2017-07-16T23:30:57.057Z,76.80
2017-07-16T23:33:23.537Z,76.20
2017-07-16T23:35:50.043Z,76.40
2017-07-16T23:38:16.495Z,76.60
2017-07-16T23:40:42.977Z,76.60
2017-07-16T23:43:09.478Z,76.10
2017-07-16T23:45:35.975Z,76.80
2017-07-16T23:48:02.430Z,77.00
2017-07-16T23:50:28.920Z,77.50
2017-07-16T23:52:55.355Z,77.90
2017-07-16T23:55:21.836Z,78.00
2017-07-16T23:57:48.287Z,78.10
